Details From LFKS - Solenzara
To LIEO - OLBIA COSTA SMERALDA
Flight Number -
Tags generated
Created
Modified
Stats Distance 62 nm / 116 km
Max Altitude 1,800 ft / 549 m
Waypoints 3
Social Downloads 1
Likes 0
Share VATSIM

Download

Looking for another format? Having issues loading an existing format? Contact us
Advertisement - Login to hide

Notes

Basic altitude profile: - Ascent Rate: 2500ft/min - Ascent Speed: 250kts - Cruise Altitude: 35000ft - Cruise Speed: 420kts - Descent Rate: 1500ft/min - Descent Speed: 250kts Options: - Use NATs: yes - Use PACOTS: yes - Use low airways: yes - Use high airways: yes

Route

LFKS TALIN LIEO

ID Type Via Altitude Latitude Longitude Leg Dist Tot Dist Heading (true) Name
O LFKS APT - 0 ft / 0 m 41.92462˚ 9.40532˚ - 0 nm - Solenzara
TALIN FIX - 1,800 ft / 549 m 41.03833˚ 9.57167˚ 53 nm 53 nm 172° / 172° -
O LIEO APT - 0 ft / 0 m 40.89866˚ 9.51763˚ 8 nm 62 nm 196° / 196° OLBIA COSTA SMERALDA

Altitude Profile

Advertisement - Login to hide

LFKS

Details ICAO LFKS (SOZ)
Name Solenzara
Region France
Timezone Europe/Paris (UTC+1.0)
Stats Elevation 27 ft / 8 m (AMSL)
Location 41.924616° 9.405323°
Runways 1
Magnetic Variation 2.451° E

METAR

LFKS 110000Z AUTO 20017KT 9999 -RA OVC066/// 17/09 Q1002

Decode

TAF

Not found

Departure Runways

ID Width Length Bearing (true) Bearing (mag) Surface Threshold Offset Overrun Length
18 148 ft / 45 m 8,582 ft / 2,616 m 179.77° 177.32° Concrete 0 ft / 0 m 686 ft / 209 m
36 148 ft / 45 m 8,582 ft / 2,616 m 359.77° 357.32° Concrete 0 ft / 0 m 935 ft / 285 m

LIEO

Details ICAO LIEO (OLB)
Name OLBIA COSTA SMERALDA
Region Italy
Timezone Europe/Rome (UTC+1.0)
Stats Elevation 37 ft / 11 m (AMSL)
Location 40.898661° 9.517629°
Runways 1
Magnetic Variation 2.441° E

METAR

LIEO 102350Z VRB02KT 9999 -DZ BKN030 15/10 Q1007

Decode

TAF

TAF LIEO 102300Z 1100/1124 20015KT 9999 SCT030

Decode

Destination Runways

ID Width Length Bearing (true) Bearing (mag) Surface Threshold Offset Overrun Length
06 148 ft / 45 m 8,013 ft / 2,442 m 55.30° 52.86° Asphalt 805 ft / 245 m 180 ft / 55 m
24 148 ft / 45 m 8,013 ft / 2,442 m 235.31° 232.87° Asphalt 495 ft / 151 m 180 ft / 55 m

Approach Navaids

Runway Type Ident Frequency Range Bearing (true) Bearing (mag) Slope Elevation
06 Localiser ISM 109.90 MHz 18 nm / 33 km 55.31° 52.87° - 36 ft / 11 m (AMSL)
06 Glidescope ISM 109.90 MHz 10 nm / 19 km 55.30° 52.86° 3.50° 36 ft / 11 m (AMSL)
06 DME ISM 109.90 MHz 18 nm / 33 km - - - 36 ft / 11 m (AMSL)
24 Localiser IOL 111.30 MHz 20 nm / 37 km 235.31° 232.87° - 36 ft / 11 m (AMSL)
24 Glidescope IOL 111.30 MHz 10 nm / 19 km 235.31° 232.87° 3.00° 36 ft / 11 m (AMSL)
24 DME IOL 111.30 MHz 25 nm / 46 km - - - 36 ft / 11 m (AMSL)